Bahawalpur Weather



Bahawalpur's Current Weather

Temprature 41.16o broken clouds

broken clouds

Rain: 0 %

Min Temprature41.16o
Max Temprature41.16o
Humidity28
Wind Speed3.26 m/h
Sun Rise05:28:28
Sun Set19:10:45
Current Time: 24-Jul-2021 16:10:43
Lat/Lon: 29.4, 71.6833




Bahawalpur's Geo Location



Bahawalpur's Weather Forecast

Time Overall Temp Min Temp Max Temp Humidity Wind Speed Rain
24-Jul-2021 (Sat)
17:00:00 broken clouds 41.340 41.340 41.340 28 3.78 m/h 0 %
20:00:00 broken clouds 40.540 38.940 40.540 30 3.75 m/h 0 %
23:00:00 broken clouds 39.020 37.860 39.020 36 3.63 m/h 0 %
25-Jul-2021 (Sun)
02:00:00 clear sky 36.560 36.560 36.560 43 2.77 m/h 0 %
05:00:00 clear sky 35.860 35.860 35.860 44 2.25 m/h 0 %
08:00:00 scattered clouds 37.660 37.660 37.660 35 3.7 m/h 0 %
11:00:00 few clouds 41.460 41.460 41.460 27 2.86 m/h 0 %
14:00:00 clear sky 43.930 43.930 43.930 23 3.49 m/h 0 %
17:00:00 clear sky 44.180 44.180 44.180 22 4.07 m/h 0 %
20:00:00 clear sky 42.050 42.050 42.050 26 5.45 m/h 0 %
23:00:00 clear sky 38.710 38.710 38.710 36 8.77 m/h 0 %
26-Jul-2021 (Mon)
02:00:00 broken clouds 36.730 36.730 36.730 41 7.48 m/h 0 %
05:00:00 broken clouds 34.770 34.770 34.770 48 7.75 m/h 0 %
08:00:00 broken clouds 35.620 35.620 35.620 46 7.66 m/h 0 %
11:00:00 scattered clouds 39.590 39.590 39.590 35 7.73 m/h 0 %
14:00:00 broken clouds 42.540 42.540 42.540 28 6.83 m/h 0 %
17:00:00 broken clouds 41.600 41.600 41.600 29 6.89 m/h 0 %
20:00:00 overcast clouds 39.090 39.090 39.090 35 8.17 m/h 0 %
23:00:00 overcast clouds 36.990 36.990 36.990 40 9.12 m/h 0 %
27-Jul-2021 (Tue)
02:00:00 overcast clouds 33.720 33.720 33.720 50 9.51 m/h 0 %
05:00:00 overcast clouds 31.190 31.190 31.190 63 8.96 m/h 0 %
08:00:00 overcast clouds 31.600 31.600 31.600 61 9.47 m/h 0 %
11:00:00 overcast clouds 34.540 34.540 34.540 50 8.57 m/h 0 %
14:00:00 overcast clouds 37.070 37.070 37.070 42 7.84 m/h 0 %
17:00:00 overcast clouds 37.160 37.160 37.160 41 8.11 m/h 0 %
20:00:00 broken clouds 34.720 34.720 34.720 48 8.18 m/h 0 %
23:00:00 overcast clouds 33.000 33.000 33.000 54 6.86 m/h 0 %
28-Jul-2021 (Wed)
02:00:00 broken clouds 31.270 31.270 31.270 61 6.29 m/h 0 %
05:00:00 broken clouds 30.440 30.440 30.440 66 5.73 m/h 0 %
08:00:00 scattered clouds 31.660 31.660 31.660 61 6.53 m/h 0 %
11:00:00 scattered clouds 35.780 35.780 35.780 46 5.71 m/h 0 %
14:00:00 broken clouds 38.890 38.890 38.890 36 5.24 m/h 0 %
17:00:00 broken clouds 38.660 38.660 38.660 36 5.58 m/h 0 %
20:00:00 overcast clouds 36.850 36.850 36.850 40 5.54 m/h 0 %
23:00:00 overcast clouds 34.750 34.750 34.750 47 6.32 m/h 0 %
29-Jul-2021 (Thu)
02:00:00 overcast clouds 33.490 33.490 33.490 51 5.04 m/h 0 %
05:00:00 overcast clouds 32.160 32.160 32.160 57 3.97 m/h 0 %
08:00:00 overcast clouds 33.360 33.360 33.360 54 3.48 m/h 0 %
11:00:00 overcast clouds 36.610 36.610 36.610 44 2.97 m/h 0 %
14:00:00 broken clouds 38.960 38.960 38.960 37 4.29 m/h 0 %


Bahawalpur's Tourist Spots

Historical Places in Bahawalpur

Famous Cities (60)